sensor_id;sensor_type;location;lat;lon;timestamp;P1;durP1;ratioP1;P2;durP2;ratioP2
25123;SDS011;13104;51.030;4.686;2023-09-30T00:00:43;5.40;;;1.58;;
25123;SDS011;13104;51.030;4.686;2023-09-30T00:03:09;2.90;;;1.52;;
25123;SDS011;13104;51.030;4.686;2023-09-30T00:05:36;2.10;;;1.42;;
25123;SDS011;13104;51.030;4.686;2023-09-30T00:08:02;3.63;;;1.77;;
25123;SDS011;13104;51.030;4.686;2023-09-30T00:10:28;1.95;;;1.10;;
25123;SDS011;13104;51.030;4.686;2023-09-30T00:12:55;1.58;;;1.00;;
25123;SDS011;13104;51.030;4.686;2023-09-30T00:15:21;1.92;;;1.15;;
25123;SDS011;13104;51.030;4.686;2023-09-30T00:17:47;1.25;;;1.00;;
25123;SDS011;13104;51.030;4.686;2023-09-30T00:20:14;1.02;;;0.93;;
25123;SDS011;13104;51.030;4.686;2023-09-30T00:22:40;1.40;;;1.23;;
25123;SDS011;13104;51.030;4.686;2023-09-30T00:25:06;1.55;;;1.10;;
25123;SDS011;13104;51.030;4.686;2023-09-30T00:27:33;2.75;;;1.45;;
25123;SDS011;13104;51.030;4.686;2023-09-30T00:29:59;3.03;;;1.40;;
25123;SDS011;13104;51.030;4.686;2023-09-30T00:32:25;2.92;;;1.60;;
25123;SDS011;13104;51.030;4.686;2023-09-30T00:34:51;3.72;;;1.70;;
25123;SDS011;13104;51.030;4.686;2023-09-30T00:37:18;1.75;;;1.45;;
25123;SDS011;13104;51.030;4.686;2023-09-30T00:39:45;1.60;;;1.30;;
25123;SDS011;13104;51.030;4.686;2023-09-30T00:42:11;2.70;;;1.35;;
25123;SDS011;13104;51.030;4.686;2023-09-30T00:44:37;2.33;;;1.42;;
25123;SDS011;13104;51.030;4.686;2023-09-30T00:47:03;2.92;;;1.67;;
25123;SDS011;13104;51.030;4.686;2023-09-30T00:49:30;1.20;;;1.02;;
25123;SDS011;13104;51.030;4.686;2023-09-30T00:51:56;1.58;;;1.15;;
25123;SDS011;13104;51.030;4.686;2023-09-30T00:54:23;1.85;;;1.38;;
25123;SDS011;13104;51.030;4.686;2023-09-30T00:56:50;5.75;;;1.67;;
25123;SDS011;13104;51.030;4.686;2023-09-30T00:59:16;1.67;;;1.48;;
25123;SDS011;13104;51.030;4.686;2023-09-30T01:01:43;1.05;;;0.95;;
25123;SDS011;13104;51.030;4.686;2023-09-30T01:04:13;2.10;;;1.40;;
25123;SDS011;13104;51.030;4.686;2023-09-30T01:06:40;2.72;;;1.50;;
25123;SDS011;13104;51.030;4.686;2023-09-30T01:09:07;4.32;;;1.50;;
25123;SDS011;13104;51.030;4.686;2023-09-30T01:11:34;2.35;;;1.30;;
25123;SDS011;13104;51.030;4.686;2023-09-30T01:14:00;1.67;;;1.40;;
25123;SDS011;13104;51.030;4.686;2023-09-30T01:16:26;1.58;;;1.23;;
25123;SDS011;13104;51.030;4.686;2023-09-30T01:18:52;1.38;;;1.15;;
25123;SDS011;13104;51.030;4.686;2023-09-30T01:21:18;2.75;;;1.40;;
25123;SDS011;13104;51.030;4.686;2023-09-30T01:23:44;1.80;;;1.10;;
25123;SDS011;13104;51.030;4.686;2023-09-30T01:26:12;4.40;;;1.33;;
25123;SDS011;13104;51.030;4.686;2023-09-30T01:28:38;2.30;;;1.50;;
25123;SDS011;13104;51.030;4.686;2023-09-30T01:31:05;1.55;;;1.20;;
25123;SDS011;13104;51.030;4.686;2023-09-30T01:33:31;1.50;;;1.20;;
25123;SDS011;13104;51.030;4.686;2023-09-30T01:35:58;2.03;;;1.45;;
25123;SDS011;13104;51.030;4.686;2023-09-30T01:38:24;1.33;;;1.20;;
25123;SDS011;13104;51.030;4.686;2023-09-30T01:40:51;1.92;;;1.40;;
25123;SDS011;13104;51.030;4.686;2023-09-30T01:43:19;1.67;;;1.30;;
25123;SDS011;13104;51.030;4.686;2023-09-30T01:45:45;1.33;;;1.00;;
25123;SDS011;13104;51.030;4.686;2023-09-30T01:48:11;1.58;;;1.20;;
25123;SDS011;13104;51.030;4.686;2023-09-30T01:50:37;1.35;;;1.10;;
25123;SDS011;13104;51.030;4.686;2023-09-30T01:53:04;1.20;;;1.10;;
25123;SDS011;13104;51.030;4.686;2023-09-30T01:55:34;2.10;;;1.13;;
25123;SDS011;13104;51.030;4.686;2023-09-30T01:58:01;1.63;;;1.30;;
25123;SDS011;13104;51.030;4.686;2023-09-30T02:00:27;1.48;;;1.00;;
25123;SDS011;13104;51.030;4.686;2023-09-30T02:02:56;1.90;;;0.90;;
25123;SDS011;13104;51.030;4.686;2023-09-30T02:05:23;1.20;;;0.80;;
25123;SDS011;13104;51.030;4.686;2023-09-30T02:07:49;2.85;;;1.45;;
25123;SDS011;13104;51.030;4.686;2023-09-30T02:10:16;1.60;;;1.10;;
25123;SDS011;13104;51.030;4.686;2023-09-30T02:12:45;1.05;;;0.90;;
25123;SDS011;13104;51.030;4.686;2023-09-30T02:15:12;3.33;;;1.27;;
25123;SDS011;13104;51.030;4.686;2023-09-30T02:17:38;1.05;;;0.90;;
25123;SDS011;13104;51.030;4.686;2023-09-30T02:20:04;1.30;;;1.15;;
25123;SDS011;13104;51.030;4.686;2023-09-30T02:22:37;1.70;;;1.20;;
25123;SDS011;13104;51.030;4.686;2023-09-30T02:25:03;2.00;;;1.52;;
25123;SDS011;13104;51.030;4.686;2023-09-30T02:27:32;2.13;;;1.17;;
25123;SDS011;13104;51.030;4.686;2023-09-30T02:29:58;2.28;;;1.48;;
25123;SDS011;13104;51.030;4.686;2023-09-30T02:32:25;1.52;;;0.95;;
25123;SDS011;13104;51.030;4.686;2023-09-30T02:34:51;2.00;;;1.20;;
25123;SDS011;13104;51.030;4.686;2023-09-30T02:37:17;2.08;;;1.10;;
25123;SDS011;13104;51.030;4.686;2023-09-30T02:39:44;2.28;;;1.50;;
25123;SDS011;13104;51.030;4.686;2023-09-30T02:42:10;11.38;;;1.33;;
25123;SDS011;13104;51.030;4.686;2023-09-30T02:44:36;1.67;;;1.40;;
25123;SDS011;13104;51.030;4.686;2023-09-30T02:47:02;2.00;;;1.58;;
25123;SDS011;13104;51.030;4.686;2023-09-30T02:49:32;8.50;;;1.45;;
25123;SDS011;13104;51.030;4.686;2023-09-30T02:51:58;1.55;;;1.08;;
25123;SDS011;13104;51.030;4.686;2023-09-30T02:54:24;1.25;;;1.10;;
25123;SDS011;13104;51.030;4.686;2023-09-30T02:56:50;1.45;;;1.10;;
25123;SDS011;13104;51.030;4.686;2023-09-30T02:59:17;1.30;;;1.20;;
25123;SDS011;13104;51.030;4.686;2023-09-30T03:01:43;1.70;;;1.05;;
25123;SDS011;13104;51.030;4.686;2023-09-30T03:04:10;1.48;;;1.10;;
25123;SDS011;13104;51.030;4.686;2023-09-30T03:06:37;1.23;;;1.13;;
25123;SDS011;13104;51.030;4.686;2023-09-30T03:09:04;1.35;;;1.00;;
25123;SDS011;13104;51.030;4.686;2023-09-30T03:11:31;2.00;;;1.20;;
25123;SDS011;13104;51.030;4.686;2023-09-30T03:13:57;1.35;;;1.15;;
25123;SDS011;13104;51.030;4.686;2023-09-30T03:16:24;2.72;;;1.15;;
25123;SDS011;13104;51.030;4.686;2023-09-30T03:18:50;1.45;;;1.20;;
25123;SDS011;13104;51.030;4.686;2023-09-30T03:21:16;5.75;;;1.60;;
25123;SDS011;13104;51.030;4.686;2023-09-30T03:23:43;1.98;;;1.27;;
25123;SDS011;13104;51.030;4.686;2023-09-30T03:26:09;1.42;;;1.25;;
25123;SDS011;13104;51.030;4.686;2023-09-30T03:28:38;3.15;;;1.40;;
25123;SDS011;13104;51.030;4.686;2023-09-30T03:31:04;2.30;;;1.50;;
25123;SDS011;13104;51.030;4.686;2023-09-30T03:33:34;2.13;;;1.30;;
25123;SDS011;13104;51.030;4.686;2023-09-30T03:36:01;2.15;;;1.20;;
25123;SDS011;13104;51.030;4.686;2023-09-30T03:38:28;1.95;;;1.30;;
25123;SDS011;13104;51.030;4.686;2023-09-30T03:40:56;3.55;;;1.73;;
25123;SDS011;13104;51.030;4.686;2023-09-30T03:43:23;3.55;;;1.40;;
25123;SDS011;13104;51.030;4.686;2023-09-30T03:45:49;3.25;;;1.45;;
25123;SDS011;13104;51.030;4.686;2023-09-30T03:48:15;1.65;;;1.30;;
25123;SDS011;13104;51.030;4.686;2023-09-30T03:50:43;2.38;;;1.60;;
25123;SDS011;13104;51.030;4.686;2023-09-30T03:53:10;1.88;;;1.40;;
25123;SDS011;13104;51.030;4.686;2023-09-30T03:55:36;1.63;;;1.25;;
25123;SDS011;13104;51.030;4.686;2023-09-30T03:58:03;1.92;;;1.65;;
25123;SDS011;13104;51.030;4.686;2023-09-30T04:00:29;1.73;;;1.30;;
25123;SDS011;13104;51.030;4.686;2023-09-30T04:02:55;1.92;;;1.50;;
25123;SDS011;13104;51.030;4.686;2023-09-30T04:05:25;1.52;;;1.23;;
25123;SDS011;13104;51.030;4.686;2023-09-30T04:07:55;1.80;;;1.27;;
25123;SDS011;13104;51.030;4.686;2023-09-30T04:10:21;1.85;;;1.10;;
25123;SDS011;13104;51.030;4.686;2023-09-30T04:12:48;1.35;;;1.20;;
25123;SDS011;13104;51.030;4.686;2023-09-30T04:15:14;1.65;;;1.48;;
25123;SDS011;13104;51.030;4.686;2023-09-30T04:17:40;4.40;;;1.67;;
25123;SDS011;13104;51.030;4.686;2023-09-30T04:20:07;1.35;;;1.20;;
25123;SDS011;13104;51.030;4.686;2023-09-30T04:22:35;1.50;;;1.10;;
25123;SDS011;13104;51.030;4.686;2023-09-30T04:25:02;1.95;;;1.40;;
25123;SDS011;13104;51.030;4.686;2023-09-30T04:27:34;2.13;;;1.30;;
25123;SDS011;13104;51.030;4.686;2023-09-30T04:30:00;2.28;;;1.30;;
25123;SDS011;13104;51.030;4.686;2023-09-30T04:32:33;2.47;;;1.50;;
25123;SDS011;13104;51.030;4.686;2023-09-30T04:34:59;2.50;;;1.65;;
25123;SDS011;13104;51.030;4.686;2023-09-30T04:37:25;2.85;;;1.30;;
25123;SDS011;13104;51.030;4.686;2023-09-30T04:39:51;2.15;;;1.33;;
25123;SDS011;13104;51.030;4.686;2023-09-30T04:42:18;3.22;;;1.42;;
25123;SDS011;13104;51.030;4.686;2023-09-30T04:44:44;3.10;;;1.40;;
25123;SDS011;13104;51.030;4.686;2023-09-30T04:47:10;2.28;;;1.23;;
25123;SDS011;13104;51.030;4.686;2023-09-30T04:49:36;2.30;;;1.55;;
25123;SDS011;13104;51.030;4.686;2023-09-30T04:52:03;2.13;;;1.30;;
25123;SDS011;13104;51.030;4.686;2023-09-30T04:54:32;1.35;;;1.17;;
25123;SDS011;13104;51.030;4.686;2023-09-30T04:57:00;1.75;;;1.10;;
25123;SDS011;13104;51.030;4.686;2023-09-30T04:59:26;2.45;;;1.33;;
25123;SDS011;13104;51.030;4.686;2023-09-30T05:01:53;1.63;;;1.42;;
25123;SDS011;13104;51.030;4.686;2023-09-30T05:04:19;7.00;;;1.42;;
25123;SDS011;13104;51.030;4.686;2023-09-30T05:06:46;4.10;;;1.48;;
25123;SDS011;13104;51.030;4.686;2023-09-30T05:09:12;1.52;;;1.20;;
25123;SDS011;13104;51.030;4.686;2023-09-30T05:11:38;1.63;;;1.17;;
25123;SDS011;13104;51.030;4.686;2023-09-30T05:14:04;2.10;;;1.40;;
25123;SDS011;13104;51.030;4.686;2023-09-30T05:16:30;2.10;;;1.10;;
25123;SDS011;13104;51.030;4.686;2023-09-30T05:18:57;2.53;;;1.40;;
25123;SDS011;13104;51.030;4.686;2023-09-30T05:21:23;2.42;;;1.30;;
25123;SDS011;13104;51.030;4.686;2023-09-30T05:23:49;2.88;;;1.88;;
25123;SDS011;13104;51.030;4.686;2023-09-30T05:26:15;1.85;;;1.48;;
25123;SDS011;13104;51.030;4.686;2023-09-30T05:28:42;1.42;;;1.23;;
25123;SDS011;13104;51.030;4.686;2023-09-30T05:31:08;3.45;;;1.67;;
25123;SDS011;13104;51.030;4.686;2023-09-30T05:33:34;1.70;;;1.33;;
25123;SDS011;13104;51.030;4.686;2023-09-30T05:36:01;2.45;;;1.48;;
25123;SDS011;13104;51.030;4.686;2023-09-30T05:38:28;2.03;;;1.50;;
25123;SDS011;13104;51.030;4.686;2023-09-30T05:40:56;2.58;;;2.05;;
25123;SDS011;13104;51.030;4.686;2023-09-30T05:43:24;2.08;;;1.48;;
25123;SDS011;13104;51.030;4.686;2023-09-30T05:45:52;3.15;;;1.65;;
25123;SDS011;13104;51.030;4.686;2023-09-30T05:48:22;4.35;;;1.83;;
25123;SDS011;13104;51.030;4.686;2023-09-30T05:50:48;2.58;;;1.60;;
25123;SDS011;13104;51.030;4.686;2023-09-30T05:53:15;1.52;;;1.40;;
25123;SDS011;13104;51.030;4.686;2023-09-30T05:55:41;2.25;;;1.55;;
25123;SDS011;13104;51.030;4.686;2023-09-30T05:58:14;5.20;;;1.65;;
25123;SDS011;13104;51.030;4.686;2023-09-30T06:00:43;1.70;;;1.30;;
25123;SDS011;13104;51.030;4.686;2023-09-30T06:03:09;2.53;;;1.65;;
25123;SDS011;13104;51.030;4.686;2023-09-30T06:05:42;1.73;;;1.58;;
25123;SDS011;13104;51.030;4.686;2023-09-30T06:08:09;2.05;;;1.50;;
25123;SDS011;13104;51.030;4.686;2023-09-30T06:10:39;1.95;;;1.42;;
25123;SDS011;13104;51.030;4.686;2023-09-30T06:13:08;2.03;;;1.50;;
25123;SDS011;13104;51.030;4.686;2023-09-30T06:15:36;6.65;;;2.25;;
25123;SDS011;13104;51.030;4.686;2023-09-30T06:18:04;2.72;;;1.55;;
25123;SDS011;13104;51.030;4.686;2023-09-30T06:20:30;7.75;;;1.83;;
25123;SDS011;13104;51.030;4.686;2023-09-30T06:22:56;3.55;;;1.80;;
25123;SDS011;13104;51.030;4.686;2023-09-30T06:25:22;3.10;;;1.90;;
25123;SDS011;13104;51.030;4.686;2023-09-30T06:27:49;3.33;;;1.92;;
25123;SDS011;13104;51.030;4.686;2023-09-30T06:30:16;4.88;;;1.95;;
25123;SDS011;13104;51.030;4.686;2023-09-30T06:32:42;3.10;;;2.13;;
25123;SDS011;13104;51.030;4.686;2023-09-30T06:35:10;3.33;;;1.77;;
25123;SDS011;13104;51.030;4.686;2023-09-30T06:37:37;5.03;;;2.17;;
25123;SDS011;13104;51.030;4.686;2023-09-30T06:40:07;3.15;;;1.98;;
25123;SDS011;13104;51.030;4.686;2023-09-30T06:42:34;3.53;;;2.33;;
25123;SDS011;13104;51.030;4.686;2023-09-30T06:45:04;2.72;;;1.88;;
25123;SDS011;13104;51.030;4.686;2023-09-30T06:47:34;2.58;;;1.90;;
25123;SDS011;13104;51.030;4.686;2023-09-30T06:50:01;4.53;;;2.50;;
25123;SDS011;13104;51.030;4.686;2023-09-30T06:52:34;3.63;;;1.95;;
25123;SDS011;13104;51.030;4.686;2023-09-30T06:55:01;2.92;;;2.05;;
25123;SDS011;13104;51.030;4.686;2023-09-30T06:57:29;3.65;;;2.00;;
25123;SDS011;13104;51.030;4.686;2023-09-30T06:59:55;3.65;;;2.40;;
25123;SDS011;13104;51.030;4.686;2023-09-30T07:02:22;3.20;;;2.33;;
25123;SDS011;13104;51.030;4.686;2023-09-30T07:04:51;5.90;;;2.50;;
25123;SDS011;13104;51.030;4.686;2023-09-30T07:07:18;4.13;;;2.45;;
25123;SDS011;13104;51.030;4.686;2023-09-30T07:09:44;9.80;;;3.05;;
25123;SDS011;13104;51.030;4.686;2023-09-30T07:12:10;4.18;;;2.47;;
25123;SDS011;13104;51.030;4.686;2023-09-30T07:14:37;4.13;;;2.53;;
25123;SDS011;13104;51.030;4.686;2023-09-30T07:17:03;7.22;;;2.45;;
25123;SDS011;13104;51.030;4.686;2023-09-30T07:19:29;3.45;;;2.47;;
25123;SDS011;13104;51.030;4.686;2023-09-30T07:21:56;6.47;;;2.78;;
25123;SDS011;13104;51.030;4.686;2023-09-30T07:24:22;3.25;;;2.25;;
25123;SDS011;13104;51.030;4.686;2023-09-30T07:26:48;2.20;;;1.88;;
25123;SDS011;13104;51.030;4.686;2023-09-30T07:29:15;3.13;;;2.20;;
25123;SDS011;13104;51.030;4.686;2023-09-30T07:31:47;3.85;;;2.22;;
25123;SDS011;13104;51.030;4.686;2023-09-30T07:34:13;3.00;;;2.17;;
25123;SDS011;13104;51.030;4.686;2023-09-30T07:36:39;8.77;;;2.63;;
25123;SDS011;13104;51.030;4.686;2023-09-30T07:39:15;4.68;;;2.70;;
25123;SDS011;13104;51.030;4.686;2023-09-30T07:41:42;3.20;;;2.25;;
25123;SDS011;13104;51.030;4.686;2023-09-30T07:44:08;2.20;;;1.77;;
25123;SDS011;13104;51.030;4.686;2023-09-30T07:46:34;4.07;;;2.42;;
25123;SDS011;13104;51.030;4.686;2023-09-30T07:49:01;4.88;;;2.55;;
25123;SDS011;13104;51.030;4.686;2023-09-30T07:51:28;4.55;;;2.40;;
25123;SDS011;13104;51.030;4.686;2023-09-30T07:53:55;3.15;;;2.20;;
25123;SDS011;13104;51.030;4.686;2023-09-30T07:56:22;3.88;;;2.40;;
25123;SDS011;13104;51.030;4.686;2023-09-30T07:58:48;3.67;;;2.15;;
25123;SDS011;13104;51.030;4.686;2023-09-30T08:01:15;6.50;;;2.28;;
25123;SDS011;13104;51.030;4.686;2023-09-30T08:03:41;7.68;;;2.40;;
25123;SDS011;13104;51.030;4.686;2023-09-30T08:06:08;3.88;;;2.13;;
25123;SDS011;13104;51.030;4.686;2023-09-30T08:08:34;8.38;;;2.35;;
25123;SDS011;13104;51.030;4.686;2023-09-30T08:11:02;5.78;;;2.10;;
25123;SDS011;13104;51.030;4.686;2023-09-30T08:13:28;2.75;;;1.92;;
25123;SDS011;13104;51.030;4.686;2023-09-30T08:15:54;4.18;;;1.63;;
25123;SDS011;13104;51.030;4.686;2023-09-30T08:18:21;3.10;;;1.67;;
25123;SDS011;13104;51.030;4.686;2023-09-30T08:20:47;3.05;;;2.13;;
25123;SDS011;13104;51.030;4.686;2023-09-30T08:23:14;6.65;;;2.47;;
25123;SDS011;13104;51.030;4.686;2023-09-30T08:25:40;2.72;;;2.00;;
25123;SDS011;13104;51.030;4.686;2023-09-30T08:28:09;3.78;;;2.13;;
25123;SDS011;13104;51.030;4.686;2023-09-30T08:30:36;5.03;;;1.80;;
25123;SDS011;13104;51.030;4.686;2023-09-30T08:33:03;3.15;;;2.08;;
25123;SDS011;13104;51.030;4.686;2023-09-30T08:35:29;6.07;;;2.40;;
25123;SDS011;13104;51.030;4.686;2023-09-30T08:37:56;2.50;;;1.70;;
25123;SDS011;13104;51.030;4.686;2023-09-30T08:40:23;3.00;;;1.65;;
25123;SDS011;13104;51.030;4.686;2023-09-30T08:42:51;5.18;;;2.50;;
25123;SDS011;13104;51.030;4.686;2023-09-30T08:45:18;2.05;;;1.45;;
25123;SDS011;13104;51.030;4.686;2023-09-30T08:47:44;2.25;;;1.90;;
25123;SDS011;13104;51.030;4.686;2023-09-30T08:50:11;5.75;;;2.53;;
25123;SDS011;13104;51.030;4.686;2023-09-30T08:52:40;4.50;;;2.42;;
25123;SDS011;13104;51.030;4.686;2023-09-30T08:55:10;3.05;;;1.70;;
25123;SDS011;13104;51.030;4.686;2023-09-30T08:57:45;6.28;;;1.98;;
25123;SDS011;13104;51.030;4.686;2023-09-30T09:00:13;2.25;;;1.73;;
25123;SDS011;13104;51.030;4.686;2023-09-30T09:02:42;6.55;;;1.85;;
25123;SDS011;13104;51.030;4.686;2023-09-30T09:05:08;2.67;;;2.10;;
25123;SDS011;13104;51.030;4.686;2023-09-30T09:07:35;2.97;;;1.60;;
25123;SDS011;13104;51.030;4.686;2023-09-30T09:10:13;4.00;;;1.75;;
25123;SDS011;13104;51.030;4.686;2023-09-30T09:12:40;4.25;;;1.85;;
25123;SDS011;13104;51.030;4.686;2023-09-30T09:15:07;2.47;;;1.90;;
25123;SDS011;13104;51.030;4.686;2023-09-30T09:17:43;1.70;;;1.25;;
25123;SDS011;13104;51.030;4.686;2023-09-30T09:20:12;2.67;;;1.70;;
25123;SDS011;13104;51.030;4.686;2023-09-30T09:25:10;3.03;;;1.50;;
25123;SDS011;13104;51.030;4.686;2023-09-30T09:27:40;3.58;;;1.52;;
25123;SDS011;13104;51.030;4.686;2023-09-30T09:30:19;1.83;;;1.58;;
25123;SDS011;13104;51.030;4.686;2023-09-30T09:32:59;2.95;;;1.63;;
25123;SDS011;13104;51.030;4.686;2023-09-30T09:35:26;4.18;;;1.65;;
25123;SDS011;13104;51.030;4.686;2023-09-30T09:38:05;2.78;;;1.30;;
25123;SDS011;13104;51.030;4.686;2023-09-30T09:40:32;1.50;;;1.38;;
25123;SDS011;13104;51.030;4.686;2023-09-30T09:42:59;1.70;;;1.40;;
25123;SDS011;13104;51.030;4.686;2023-09-30T09:45:27;2.58;;;1.50;;
25123;SDS011;13104;51.030;4.686;2023-09-30T09:47:57;2.45;;;1.38;;
25123;SDS011;13104;51.030;4.686;2023-09-30T09:50:24;1.75;;;1.08;;
25123;SDS011;13104;51.030;4.686;2023-09-30T09:52:51;2.58;;;1.05;;
25123;SDS011;13104;51.030;4.686;2023-09-30T09:55:32;1.88;;;1.30;;
25123;SDS011;13104;51.030;4.686;2023-09-30T09:58:20;1.98;;;1.08;;
25123;SDS011;13104;51.030;4.686;2023-09-30T10:00:46;1.20;;;0.98;;
25123;SDS011;13104;51.030;4.686;2023-09-30T10:03:19;1.48;;;1.13;;
25123;SDS011;13104;51.030;4.686;2023-09-30T10:05:45;1.80;;;1.20;;
25123;SDS011;13104;51.030;4.686;2023-09-30T10:11:22;2.63;;;1.02;;
25123;SDS011;13104;51.030;4.686;2023-09-30T10:13:58;1.58;;;1.20;;
25123;SDS011;13104;51.030;4.686;2023-09-30T10:19:21;1.70;;;1.10;;
25123;SDS011;13104;51.030;4.686;2023-09-30T10:24:39;2.08;;;1.02;;
25123;SDS011;13104;51.030;4.686;2023-09-30T10:30:11;1.10;;;0.73;;
25123;SDS011;13104;51.030;4.686;2023-09-30T10:35:16;1.58;;;0.80;;
25123;SDS011;13104;51.030;4.686;2023-09-30T10:37:43;1.75;;;0.90;;
25123;SDS011;13104;51.030;4.686;2023-09-30T10:40:10;2.10;;;0.95;;
25123;SDS011;13104;51.030;4.686;2023-09-30T10:43:29;1.00;;;0.80;;
25123;SDS011;13104;51.030;4.686;2023-09-30T10:45:56;4.97;;;0.90;;
25123;SDS011;13104;51.030;4.686;2023-09-30T10:50:58;1.13;;;0.90;;
25123;SDS011;13104;51.030;4.686;2023-09-30T10:56:48;0.77;;;0.60;;
25123;SDS011;13104;51.030;4.686;2023-09-30T10:59:24;3.13;;;0.82;;
25123;SDS011;13104;51.030;4.686;2023-09-30T11:01:51;0.98;;;0.75;;
25123;SDS011;13104;51.030;4.686;2023-09-30T11:04:18;1.00;;;0.60;;
25123;SDS011;13104;51.030;4.686;2023-09-30T11:06:44;1.67;;;0.93;;
25123;SDS011;13104;51.030;4.686;2023-09-30T11:09:15;1.33;;;1.00;;
25123;SDS011;13104;51.030;4.686;2023-09-30T11:11:42;1.55;;;0.70;;
25123;SDS011;13104;51.030;4.686;2023-09-30T11:14:19;0.73;;;0.70;;
25123;SDS011;13104;51.030;4.686;2023-09-30T11:16:45;1.67;;;0.70;;
25123;SDS011;13104;51.030;4.686;2023-09-30T11:19:12;1.63;;;0.70;;
25123;SDS011;13104;51.030;4.686;2023-09-30T11:21:40;0.40;;;0.40;;
25123;SDS011;13104;51.030;4.686;2023-09-30T11:24:12;1.08;;;0.98;;
25123;SDS011;13104;51.030;4.686;2023-09-30T11:26:38;5.25;;;1.05;;
25123;SDS011;13104;51.030;4.686;2023-09-30T11:29:06;1.58;;;0.75;;
25123;SDS011;13104;51.030;4.686;2023-09-30T11:31:39;0.63;;;0.47;;
25123;SDS011;13104;51.030;4.686;2023-09-30T11:34:05;1.02;;;0.85;;
25123;SDS011;13104;51.030;4.686;2023-09-30T11:36:36;1.08;;;0.70;;
25123;SDS011;13104;51.030;4.686;2023-09-30T11:39:03;0.60;;;0.50;;
25123;SDS011;13104;51.030;4.686;2023-09-30T11:41:35;0.90;;;0.70;;
25123;SDS011;13104;51.030;4.686;2023-09-30T11:44:07;1.50;;;0.75;;
25123;SDS011;13104;51.030;4.686;2023-09-30T11:46:52;1.05;;;0.88;;
25123;SDS011;13104;51.030;4.686;2023-09-30T11:49:32;1.88;;;0.75;;
25123;SDS011;13104;51.030;4.686;2023-09-30T11:52:00;0.82;;;0.80;;
25123;SDS011;13104;51.030;4.686;2023-09-30T11:54:28;1.25;;;0.65;;
25123;SDS011;13104;51.030;4.686;2023-09-30T11:56:54;1.25;;;0.80;;
25123;SDS011;13104;51.030;4.686;2023-09-30T11:59:20;0.75;;;0.75;;
25123;SDS011;13104;51.030;4.686;2023-09-30T12:01:47;2.55;;;0.82;;
25123;SDS011;13104;51.030;4.686;2023-09-30T12:04:14;0.98;;;0.70;;
25123;SDS011;13104;51.030;4.686;2023-09-30T12:06:43;6.72;;;1.25;;
25123;SDS011;13104;51.030;4.686;2023-09-30T12:09:09;0.95;;;0.73;;
25123;SDS011;13104;51.030;4.686;2023-09-30T12:11:39;0.93;;;0.80;;
25123;SDS011;13104;51.030;4.686;2023-09-30T12:14:08;2.35;;;1.25;;
25123;SDS011;13104;51.030;4.686;2023-09-30T12:16:34;1.38;;;0.63;;
25123;SDS011;13104;51.030;4.686;2023-09-30T12:19:01;1.05;;;0.90;;
25123;SDS011;13104;51.030;4.686;2023-09-30T12:21:27;5.38;;;0.90;;
25123;SDS011;13104;51.030;4.686;2023-09-30T12:23:53;0.90;;;0.60;;
25123;SDS011;13104;51.030;4.686;2023-09-30T12:26:20;0.57;;;0.57;;
25123;SDS011;13104;51.030;4.686;2023-09-30T12:28:48;0.57;;;0.50;;
25123;SDS011;13104;51.030;4.686;2023-09-30T12:31:14;1.40;;;0.88;;
25123;SDS011;13104;51.030;4.686;2023-09-30T12:33:41;1.77;;;1.25;;
25123;SDS011;13104;51.030;4.686;2023-09-30T12:36:07;0.85;;;0.65;;
25123;SDS011;13104;51.030;4.686;2023-09-30T12:38:33;0.60;;;0.60;;
25123;SDS011;13104;51.030;4.686;2023-09-30T12:40:59;0.65;;;0.60;;
25123;SDS011;13104;51.030;4.686;2023-09-30T12:43:25;1.92;;;0.77;;
25123;SDS011;13104;51.030;4.686;2023-09-30T12:45:51;0.47;;;0.47;;
25123;SDS011;13104;51.030;4.686;2023-09-30T12:48:18;1.00;;;0.70;;
25123;SDS011;13104;51.030;4.686;2023-09-30T12:50:44;0.65;;;0.52;;
25123;SDS011;13104;51.030;4.686;2023-09-30T12:53:10;1.38;;;0.70;;
25123;SDS011;13104;51.030;4.686;2023-09-30T12:55:36;0.93;;;0.63;;
25123;SDS011;13104;51.030;4.686;2023-09-30T12:58:03;1.90;;;0.80;;
25123;SDS011;13104;51.030;4.686;2023-09-30T13:00:30;1.33;;;0.75;;
25123;SDS011;13104;51.030;4.686;2023-09-30T13:02:58;0.75;;;0.70;;
25123;SDS011;13104;51.030;4.686;2023-09-30T13:05:24;1.58;;;0.70;;
25123;SDS011;13104;51.030;4.686;2023-09-30T13:07:51;1.48;;;0.85;;
25123;SDS011;13104;51.030;4.686;2023-09-30T13:10:18;1.35;;;1.00;;
25123;SDS011;13104;51.030;4.686;2023-09-30T13:13:01;1.20;;;0.80;;
25123;SDS011;13104;51.030;4.686;2023-09-30T13:15:27;2.58;;;1.08;;
25123;SDS011;13104;51.030;4.686;2023-09-30T13:17:54;2.70;;;0.82;;
25123;SDS011;13104;51.030;4.686;2023-09-30T13:20:20;0.88;;;0.70;;
25123;SDS011;13104;51.030;4.686;2023-09-30T13:22:47;0.60;;;0.60;;
25123;SDS011;13104;51.030;4.686;2023-09-30T13:25:15;1.48;;;0.73;;
25123;SDS011;13104;51.030;4.686;2023-09-30T13:27:41;1.48;;;0.88;;
25123;SDS011;13104;51.030;4.686;2023-09-30T13:30:10;0.88;;;0.60;;
25123;SDS011;13104;51.030;4.686;2023-09-30T13:32:36;0.75;;;0.60;;
25123;SDS011;13104;51.030;4.686;2023-09-30T13:35:06;0.85;;;0.52;;
25123;SDS011;13104;51.030;4.686;2023-09-30T13:37:33;1.80;;;0.70;;
25123;SDS011;13104;51.030;4.686;2023-09-30T13:40:00;1.20;;;0.70;;
25123;SDS011;13104;51.030;4.686;2023-09-30T13:42:27;1.05;;;0.60;;
25123;SDS011;13104;51.030;4.686;2023-09-30T13:44:53;1.08;;;0.55;;
25123;SDS011;13104;51.030;4.686;2023-09-30T13:47:22;1.23;;;0.82;;
25123;SDS011;13104;51.030;4.686;2023-09-30T13:49:48;1.83;;;0.95;;
25123;SDS011;13104;51.030;4.686;2023-09-30T13:52:15;1.35;;;0.50;;
25123;SDS011;13104;51.030;4.686;2023-09-30T13:54:42;1.52;;;0.80;;
25123;SDS011;13104;51.030;4.686;2023-09-30T13:57:08;1.48;;;0.88;;
25123;SDS011;13104;51.030;4.686;2023-09-30T13:59:35;0.95;;;0.55;;
25123;SDS011;13104;51.030;4.686;2023-09-30T14:02:01;1.13;;;0.60;;
25123;SDS011;13104;51.030;4.686;2023-09-30T14:04:31;2.13;;;0.50;;
25123;SDS011;13104;51.030;4.686;2023-09-30T14:07:00;0.50;;;0.50;;
25123;SDS011;13104;51.030;4.686;2023-09-30T14:09:27;1.25;;;0.90;;
25123;SDS011;13104;51.030;4.686;2023-09-30T14:11:53;1.58;;;0.85;;
25123;SDS011;13104;51.030;4.686;2023-09-30T14:14:19;0.75;;;0.60;;
25123;SDS011;13104;51.030;4.686;2023-09-30T14:16:45;1.08;;;0.77;;
25123;SDS011;13104;51.030;4.686;2023-09-30T14:19:12;1.92;;;0.98;;
25123;SDS011;13104;51.030;4.686;2023-09-30T14:21:39;0.75;;;0.60;;
25123;SDS011;13104;51.030;4.686;2023-09-30T14:24:05;0.75;;;0.40;;
25123;SDS011;13104;51.030;4.686;2023-09-30T14:26:31;4.57;;;0.63;;
25123;SDS011;13104;51.030;4.686;2023-09-30T14:28:58;1.38;;;0.70;;
25123;SDS011;13104;51.030;4.686;2023-09-30T14:31:24;4.65;;;0.73;;
25123;SDS011;13104;51.030;4.686;2023-09-30T14:33:50;0.75;;;0.55;;
25123;SDS011;13104;51.030;4.686;2023-09-30T14:36:16;1.20;;;0.80;;
25123;SDS011;13104;51.030;4.686;2023-09-30T14:38:43;0.80;;;0.50;;
25123;SDS011;13104;51.030;4.686;2023-09-30T14:41:13;1.27;;;0.73;;
25123;SDS011;13104;51.030;4.686;2023-09-30T14:43:39;3.83;;;1.08;;
25123;SDS011;13104;51.030;4.686;2023-09-30T14:46:06;0.55;;;0.50;;
25123;SDS011;13104;51.030;4.686;2023-09-30T14:48:33;1.50;;;0.80;;
25123;SDS011;13104;51.030;4.686;2023-09-30T14:51:00;0.98;;;0.77;;
25123;SDS011;13104;51.030;4.686;2023-09-30T14:53:30;1.27;;;0.60;;
25123;SDS011;13104;51.030;4.686;2023-09-30T14:55:56;1.15;;;0.75;;
25123;SDS011;13104;51.030;4.686;2023-09-30T14:58:22;0.77;;;0.55;;
25123;SDS011;13104;51.030;4.686;2023-09-30T15:00:48;0.70;;;0.57;;
25123;SDS011;13104;51.030;4.686;2023-09-30T15:03:14;5.45;;;0.60;;
25123;SDS011;13104;51.030;4.686;2023-09-30T15:05:41;2.13;;;0.98;;
25123;SDS011;13104;51.030;4.686;2023-09-30T15:08:07;0.77;;;0.68;;
25123;SDS011;13104;51.030;4.686;2023-09-30T15:10:36;1.23;;;0.60;;
25123;SDS011;13104;51.030;4.686;2023-09-30T15:13:03;1.00;;;0.70;;